Thursday, April 26, 2018, 4:42 PM EDT
Back to Local

KHEF, Manassas, Manassas Regional Airport/harry P. Davis Field

Location: Manassas, VA, United States Lat: 38.717
Local Time: 4:42 PM EDT (20:42 GMT) Lon: -77.517
Time Zone: US/Eastern Elev: 193 ft

Show me the last for .
Show Decoded

2018-04-26 15:56 METAR KHEF 261956Z VRB04KT 10SM CLR 21/03 A2984 RMK AO2 SLP114 T02110028 PNO $ =
2018-04-26 14:56 METAR KHEF 261856Z 33007KT 300V010 10SM CLR 21/03 A2985 RMK AO2 SLP119 T02110028
                 PNO $ =
2018-04-26 13:56 METAR KHEF 261756Z 29007KT 10SM CLR 20/04 A2986 RMK AO2 SLP123 6//// T02000039
                 10200 20111 58010 PNO $ =
2018-04-26 12:56 METAR KHEF 261656Z 29007KT 10SM CLR 18/04 A2988 RMK AO2 SLP127 T01830039 PNO $ =
2018-04-26 11:56 METAR KHEF 261556Z 33010KT 10SM CLR 17/03 A2989 RMK AO2 SLP133 T01720033 PNO $ =
2018-04-26 10:56 METAR KHEF 261456Z 33012G17KT 10SM CLR 16/03 A2989 RMK AO2 SLP133 6////
                 T01610033 50001 PNO $ =
2018-04-26 09:56 METAR KHEF 261356Z 30009KT 10SM CLR 14/04 A2990 RMK AO2 SLP136 T01390044 PNO $ =
2018-04-26 08:56 METAR KHEF 261256Z 00000KT 10SM CLR 12/03 A2991 RMK AO2 SLP138 T01220033 PNO $ =
2018-04-26 07:56 METAR KHEF 261156Z 31007KT 10SM CLR 11/04 A2989 RMK AO2 SLP132 6//// 7////
                 T01110039 10133 20083 53016 PNO $ =
2018-04-26 06:56 METAR KHEF 261056Z 32007KT 10SM CLR 09/03 A2985 RMK AO2 SLP119 T00890033 PNO $ =
2018-04-26 05:56 METAR KHEF 260956Z AUTO 32009KT 10SM CLR 09/03 A2984 RMK AO2 SLP114 T00890033
                 PNO $ =
2018-04-26 04:56 METAR KHEF 260856Z AUTO 32010KT 10SM CLR 09/04 A2984 RMK AO2 SLP116 6////
                 T00940039 51021 PNO $ =
2018-04-26 03:56 METAR KHEF 260756Z AUTO 30006KT 10SM CLR 11/04 A2983 RMK AO2 SLP113 T01060044
                 PNO $ =
2018-04-26 02:56 METAR KHEF 260656Z AUTO VRB03KT 10SM CLR 11/06 A2980 RMK AO2 SLP103 T01110061
                 PNO $ =
2018-04-26 01:56 METAR KHEF 260556Z AUTO 31012KT 10SM CLR 13/08 A2978 RMK AO2 SLP095 6////
                 T01330083 10161 20133 53007 PNO $ =
2018-04-26 00:56 METAR KHEF 260456Z AUTO 31009KT 10SM FEW050 15/09 A2977 RMK AO2 SLP093 T01500094
                 PNO $ =
2018-04-25 23:56 METAR KHEF 260356Z AUTO 31008KT 10SM CLR 14/11 A2976 RMK AO2 SLP088 T01390111
                 401720117 PNO $ =
2018-04-25 22:56 METAR KHEF 260256Z AUTO 32005KT 10SM CLR 16/11 A2976 RMK AO2 SLP088 6////
                 T01560111 51012 PNO $ =
2018-04-25 21:56 METAR KHEF 260156Z 30006KT 10SM FEW055 OVC110 14/14 A2975 RMK AO2 SLP086
                 T01440139 PNO $ =
2018-04-25 20:56 METAR KHEF 260056Z 00000KT 10SM OVC100 16/14 A2974 RMK AO2 SLP082 T01560144 PNO
                 $ =
2018-04-25 19:56 METAR KHEF 252356Z 00000KT 10SM OVC070 17/14 A2972 RMK AO2 SLP075 6////
                 T01670144 10172 20156 53006 PNO $ =
2018-04-25 18:56 METAR KHEF 252256Z 36004KT 10SM BKN049 OVC085 17/14 A2971 RMK AO2 SLP071
                 T01720144 PNO $ =
2018-04-25 17:56 METAR KHEF 252156Z 02004KT 10SM OVC047 17/14 A2970 RMK AO2 RAB15E30 SLPNO
                 T01670144 PNO $ =
2018-04-25 17:02 METAR KHEF 252102Z 01006KT 10SM SCT014 SCT024 OVC060 16/14 A2971 RMK AO2 PNO $ =
2018-04-25 16:56 METAR KHEF 252056Z 01008KT 10SM BKN014 BKN022 OVC055 16/14 A2970 RMK AO2 SLP069
                 6//// T01610139 56011 PNO $ =

Support USWX by starting your Amazon purchase here.